Coker Creek, TN

11:16 PM EDT on September 02, 2014 (GMT -0400)
McGhee Tyson | Change Station
CLOSE
Current Station
Airport
Location: Knoxville,
Elevation: 981 ft
Nearby Weather Stations

Elev 981 ft 35.82 °N, 83.99 °W | Updated 23 minutes ago

Overcast
Overcast
72 °F
Feels Like 72 °F
N
7
Wind Variable Wind from ENE

Today
High -- | Low -- °F
--% Chance of Precip.
Yesterday
High -- | Low -- °F
Precip. -- in
7:10 AM 8:03 PM
First Quarter, 57% visible
Pressure 30.06 in
Visibility 10.0 miles
Clouds Few 2800 ft
Scattered Clouds 4000 ft
Mostly Cloudy 12000 ft
Overcast 25000 ft
Dew Point 66 °F
Humidity 83%
Rainfall 0.00 in
Snow Depth Not available.
UV 0 out of 12
Pollen 10.20 out of 12
Air Quality Not available.
Flu Activity Not available.
METAR KTYS 030253Z 07006KT 10SM VCTS FEW028CB SCT040 BKN120 OVC250 22/19 A3006

More Conditions Fewer Conditions

Pressure 30.06 in
Visibility 10.0 miles
Clouds Few 2800 ft
Scattered Clouds 4000 ft
Mostly Cloudy 12000 ft
Overcast 25000 ft
Dew Point 66 °F
Humidity 83%
Rainfall 0.00 in
Snow Depth Not available.
UV 0 out of 12
Pollen 10.20 out of 12
Air Quality Not available.
Flu Activity Not available.
METAR KTYS 030253Z 07006KT 10SM VCTS FEW028CB SCT040 BKN120 OVC250 22/19 A3006

More Conditions Fewer Conditions

10-Day Weather Forecast

Almanac

Astronomy

Sep. 02, 2014 Rise Set
Actual Time 7:10 AM EDT 8:03 PM EDT
Civil Twilight 6:44 AM EDT 8:28 PM EDT
Nautical Twilight 6:13 AM EDT 8:59 PM EDT
Astronomical Twilight 5:41 AM EDT 9:31 PM EDT
Moon 2:38 PM EDT (9/2) 12:19 AM EDT (9/2)
Length of Visible Light 13h 44m
Length of Day
12h 52m
Tomorrow will be 2m 9s shorter.
First Quarter, 57% of the Moon is Illuminated
Today
First Quarter
Sep 8
Full
Sep 15
Last Quarter
Sep 24
New
Oct 1
First Quarter

Today's Extremes

State Highs State Lows

Community

WunderPhotos

Upload Photos

1,749,862 photos uploaded!

Nearby

Snow Depth

Station Depth Elevation
No new snow has been reported.

Earthquake Activity

City Distance Mag. Time & Date
No recent earthquake activity has been reported nearby.
Minimum magnitude displayed is 2.5.

Coastal Water Temperatures

Place Temperature
No Stations Reporting

Nearby Weather Stations